sensor_id;sensor_type;location;lat;lon;timestamp;P1;durP1;ratioP1;P2;durP2;ratioP2
23370;SDS011;11858;51.056;3.712;2022-08-19T00:01:51;69.72;;;52.97;;
23370;SDS011;11858;51.056;3.712;2022-08-19T00:04:20;77.40;;;56.00;;
23370;SDS011;11858;51.056;3.712;2022-08-19T00:06:49;70.85;;;54.40;;
23370;SDS011;11858;51.056;3.712;2022-08-19T00:09:16;66.88;;;51.45;;
23370;SDS011;11858;51.056;3.712;2022-08-19T00:11:44;75.40;;;54.08;;
23370;SDS011;11858;51.056;3.712;2022-08-19T00:14:11;76.57;;;55.10;;
23370;SDS011;11858;51.056;3.712;2022-08-19T00:16:41;77.43;;;55.72;;
23370;SDS011;11858;51.056;3.712;2022-08-19T00:19:08;78.25;;;55.22;;
23370;SDS011;11858;51.056;3.712;2022-08-19T00:21:34;77.95;;;55.50;;
23370;SDS011;11858;51.056;3.712;2022-08-19T00:24:04;71.67;;;52.00;;
23370;SDS011;11858;51.056;3.712;2022-08-19T00:26:31;73.60;;;54.25;;
23370;SDS011;11858;51.056;3.712;2022-08-19T00:28:58;70.15;;;50.28;;
23370;SDS011;11858;51.056;3.712;2022-08-19T00:31:25;67.47;;;49.75;;
23370;SDS011;11858;51.056;3.712;2022-08-19T00:33:52;66.97;;;48.85;;
23370;SDS011;11858;51.056;3.712;2022-08-19T00:36:18;70.07;;;48.78;;
23370;SDS011;11858;51.056;3.712;2022-08-19T00:38:44;71.78;;;49.63;;
23370;SDS011;11858;51.056;3.712;2022-08-19T00:41:15;69.18;;;48.15;;
23370;SDS011;11858;51.056;3.712;2022-08-19T00:44:08;68.65;;;48.40;;
23370;SDS011;11858;51.056;3.712;2022-08-19T00:46:35;69.18;;;46.53;;
23370;SDS011;11858;51.056;3.712;2022-08-19T00:49:05;69.97;;;49.50;;
23370;SDS011;11858;51.056;3.712;2022-08-19T00:51:34;69.78;;;48.63;;
23370;SDS011;11858;51.056;3.712;2022-08-19T00:54:01;65.88;;;47.63;;
23370;SDS011;11858;51.056;3.712;2022-08-19T00:56:28;72.13;;;47.97;;
23370;SDS011;11858;51.056;3.712;2022-08-19T00:58:56;66.60;;;47.42;;
23370;SDS011;11858;51.056;3.712;2022-08-19T01:01:23;66.53;;;48.00;;
23370;SDS011;11858;51.056;3.712;2022-08-19T01:03:49;66.60;;;46.97;;
23370;SDS011;11858;51.056;3.712;2022-08-19T01:06:15;67.55;;;46.80;;
23370;SDS011;11858;51.056;3.712;2022-08-19T01:08:41;67.70;;;47.60;;
23370;SDS011;11858;51.056;3.712;2022-08-19T01:11:07;65.25;;;44.20;;
23370;SDS011;11858;51.056;3.712;2022-08-19T01:13:34;62.30;;;46.53;;
23370;SDS011;11858;51.056;3.712;2022-08-19T01:16:05;66.45;;;44.40;;
23370;SDS011;11858;51.056;3.712;2022-08-19T01:18:38;61.47;;;43.88;;
23370;SDS011;11858;51.056;3.712;2022-08-19T01:21:09;60.63;;;44.40;;
23370;SDS011;11858;51.056;3.712;2022-08-19T01:23:42;59.45;;;43.88;;
23370;SDS011;11858;51.056;3.712;2022-08-19T01:31:39;59.33;;;43.92;;
23370;SDS011;11858;51.056;3.712;2022-08-19T01:34:06;61.35;;;43.15;;
23370;SDS011;11858;51.056;3.712;2022-08-19T01:36:37;57.20;;;41.47;;
23370;SDS011;11858;51.056;3.712;2022-08-19T01:39:13;59.97;;;42.28;;
23370;SDS011;11858;51.056;3.712;2022-08-19T01:41:42;58.83;;;40.10;;
23370;SDS011;11858;51.056;3.712;2022-08-19T01:44:08;58.10;;;40.35;;
23370;SDS011;11858;51.056;3.712;2022-08-19T01:46:35;63.35;;;42.03;;
23370;SDS011;11858;51.056;3.712;2022-08-19T01:49:02;64.72;;;41.97;;
23370;SDS011;11858;51.056;3.712;2022-08-19T01:51:29;63.40;;;42.83;;
23370;SDS011;11858;51.056;3.712;2022-08-19T01:53:55;60.78;;;41.58;;
23370;SDS011;11858;51.056;3.712;2022-08-19T01:56:22;59.85;;;41.13;;
23370;SDS011;11858;51.056;3.712;2022-08-19T01:58:51;57.38;;;40.55;;
23370;SDS011;11858;51.056;3.712;2022-08-19T02:01:20;60.42;;;39.83;;
23370;SDS011;11858;51.056;3.712;2022-08-19T02:03:46;60.80;;;41.47;;
23370;SDS011;11858;51.056;3.712;2022-08-19T02:06:12;54.70;;;40.42;;
23370;SDS011;11858;51.056;3.712;2022-08-19T02:08:38;57.08;;;41.60;;
23370;SDS011;11858;51.056;3.712;2022-08-19T02:11:04;60.55;;;40.97;;
23370;SDS011;11858;51.056;3.712;2022-08-19T02:13:32;54.80;;;38.45;;
23370;SDS011;11858;51.056;3.712;2022-08-19T02:15:58;57.15;;;40.42;;
23370;SDS011;11858;51.056;3.712;2022-08-19T02:18:24;55.92;;;39.35;;
23370;SDS011;11858;51.056;3.712;2022-08-19T02:20:51;56.28;;;40.08;;
23370;SDS011;11858;51.056;3.712;2022-08-19T02:23:17;56.78;;;39.30;;
23370;SDS011;11858;51.056;3.712;2022-08-19T02:25:45;62.05;;;39.97;;
23370;SDS011;11858;51.056;3.712;2022-08-19T02:28:13;60.30;;;38.65;;
23370;SDS011;11858;51.056;3.712;2022-08-19T02:30:40;62.63;;;39.70;;
23370;SDS011;11858;51.056;3.712;2022-08-19T02:33:07;61.80;;;39.83;;
23370;SDS011;11858;51.056;3.712;2022-08-19T02:35:33;57.70;;;39.60;;
23370;SDS011;11858;51.056;3.712;2022-08-19T02:37:59;61.38;;;39.13;;
23370;SDS011;11858;51.056;3.712;2022-08-19T02:40:50;63.80;;;40.58;;
23370;SDS011;11858;51.056;3.712;2022-08-19T02:43:23;56.85;;;39.97;;
23370;SDS011;11858;51.056;3.712;2022-08-19T02:45:50;64.68;;;39.35;;
23370;SDS011;11858;51.056;3.712;2022-08-19T02:48:17;58.05;;;39.20;;
23370;SDS011;11858;51.056;3.712;2022-08-19T02:50:44;58.40;;;39.08;;
23370;SDS011;11858;51.056;3.712;2022-08-19T02:53:11;59.65;;;39.20;;
23370;SDS011;11858;51.056;3.712;2022-08-19T02:55:42;55.78;;;39.38;;
23370;SDS011;11858;51.056;3.712;2022-08-19T02:58:11;60.28;;;39.00;;
23370;SDS011;11858;51.056;3.712;2022-08-19T03:00:46;55.10;;;36.80;;
23370;SDS011;11858;51.056;3.712;2022-08-19T03:03:14;57.08;;;39.47;;
23370;SDS011;11858;51.056;3.712;2022-08-19T03:05:41;65.63;;;40.80;;
23370;SDS011;11858;51.056;3.712;2022-08-19T03:08:08;65.82;;;40.45;;
23370;SDS011;11858;51.056;3.712;2022-08-19T03:10:42;64.03;;;40.88;;
23370;SDS011;11858;51.056;3.712;2022-08-19T03:13:10;58.47;;;38.55;;
23370;SDS011;11858;51.056;3.712;2022-08-19T03:15:41;62.30;;;41.90;;
23370;SDS011;11858;51.056;3.712;2022-08-19T03:18:08;55.90;;;40.17;;
23370;SDS011;11858;51.056;3.712;2022-08-19T03:20:39;57.83;;;41.05;;
23370;SDS011;11858;51.056;3.712;2022-08-19T03:23:09;53.75;;;39.13;;
23370;SDS011;11858;51.056;3.712;2022-08-19T03:25:39;60.80;;;39.83;;
23370;SDS011;11858;51.056;3.712;2022-08-19T03:28:06;49.13;;;37.72;;
23370;SDS011;11858;51.056;3.712;2022-08-19T03:30:32;55.67;;;37.08;;
23370;SDS011;11858;51.056;3.712;2022-08-19T03:32:58;56.33;;;37.10;;
23370;SDS011;11858;51.056;3.712;2022-08-19T03:35:24;46.17;;;36.42;;
23370;SDS011;11858;51.056;3.712;2022-08-19T03:37:49;45.13;;;35.15;;
23370;SDS011;11858;51.056;3.712;2022-08-19T03:40:15;44.30;;;32.35;;
23370;SDS011;11858;51.056;3.712;2022-08-19T03:42:43;48.53;;;32.33;;
23370;SDS011;11858;51.056;3.712;2022-08-19T03:45:11;46.67;;;34.30;;
23370;SDS011;11858;51.056;3.712;2022-08-19T03:47:37;48.72;;;33.00;;
23370;SDS011;11858;51.056;3.712;2022-08-19T03:50:03;44.42;;;32.58;;
23370;SDS011;11858;51.056;3.712;2022-08-19T03:52:29;44.08;;;30.38;;
23370;SDS011;11858;51.056;3.712;2022-08-19T03:54:55;47.83;;;32.72;;
23370;SDS011;11858;51.056;3.712;2022-08-19T03:57:21;45.05;;;30.75;;
23370;SDS011;11858;51.056;3.712;2022-08-19T03:59:47;44.00;;;30.85;;
23370;SDS011;11858;51.056;3.712;2022-08-19T04:02:13;42.75;;;31.38;;
23370;SDS011;11858;51.056;3.712;2022-08-19T04:04:40;40.90;;;28.67;;
23370;SDS011;11858;51.056;3.712;2022-08-19T04:07:08;47.13;;;31.30;;
23370;SDS011;11858;51.056;3.712;2022-08-19T04:09:35;44.50;;;31.52;;
23370;SDS011;11858;51.056;3.712;2022-08-19T04:12:01;40.15;;;30.17;;
23370;SDS011;11858;51.056;3.712;2022-08-19T04:14:30;42.22;;;29.58;;
23370;SDS011;11858;51.056;3.712;2022-08-19T04:16:56;46.08;;;30.98;;
23370;SDS011;11858;51.056;3.712;2022-08-19T04:19:24;43.80;;;30.23;;
23370;SDS011;11858;51.056;3.712;2022-08-19T04:21:51;40.30;;;29.67;;
23370;SDS011;11858;51.056;3.712;2022-08-19T04:24:19;41.22;;;30.30;;
23370;SDS011;11858;51.056;3.712;2022-08-19T04:26:45;43.08;;;30.63;;
23370;SDS011;11858;51.056;3.712;2022-08-19T04:29:16;45.45;;;31.05;;
23370;SDS011;11858;51.056;3.712;2022-08-19T04:31:48;45.75;;;31.08;;
23370;SDS011;11858;51.056;3.712;2022-08-19T04:34:15;45.28;;;30.95;;
23370;SDS011;11858;51.056;3.712;2022-08-19T04:36:44;42.72;;;31.00;;
23370;SDS011;11858;51.056;3.712;2022-08-19T04:39:11;46.17;;;31.85;;
23370;SDS011;11858;51.056;3.712;2022-08-19T04:41:42;45.53;;;30.40;;
23370;SDS011;11858;51.056;3.712;2022-08-19T04:44:27;40.83;;;29.77;;
23370;SDS011;11858;51.056;3.712;2022-08-19T04:46:55;45.47;;;29.92;;
23370;SDS011;11858;51.056;3.712;2022-08-19T04:49:22;49.88;;;31.15;;
23370;SDS011;11858;51.056;3.712;2022-08-19T04:51:48;44.45;;;30.23;;
23370;SDS011;11858;51.056;3.712;2022-08-19T04:54:15;44.72;;;31.15;;
23370;SDS011;11858;51.056;3.712;2022-08-19T04:56:42;40.08;;;29.45;;
23370;SDS011;11858;51.056;3.712;2022-08-19T04:59:09;40.95;;;27.10;;
23370;SDS011;11858;51.056;3.712;2022-08-19T05:01:36;41.42;;;29.17;;
23370;SDS011;11858;51.056;3.712;2022-08-19T05:04:03;43.50;;;29.20;;
23370;SDS011;11858;51.056;3.712;2022-08-19T05:06:31;44.38;;;28.88;;
23370;SDS011;11858;51.056;3.712;2022-08-19T05:09:01;39.37;;;27.97;;
23370;SDS011;11858;51.056;3.712;2022-08-19T05:11:31;45.33;;;28.98;;
23370;SDS011;11858;51.056;3.712;2022-08-19T05:13:59;40.17;;;28.83;;
23370;SDS011;11858;51.056;3.712;2022-08-19T05:16:25;39.72;;;27.25;;
23370;SDS011;11858;51.056;3.712;2022-08-19T05:18:51;37.25;;;27.20;;
23370;SDS011;11858;51.056;3.712;2022-08-19T05:21:36;38.35;;;27.48;;
23370;SDS011;11858;51.056;3.712;2022-08-19T05:24:21;42.22;;;27.73;;
23370;SDS011;11858;51.056;3.712;2022-08-19T05:26:48;35.65;;;25.63;;
23370;SDS011;11858;51.056;3.712;2022-08-19T05:29:16;36.92;;;26.10;;
23370;SDS011;11858;51.056;3.712;2022-08-19T05:31:44;38.38;;;25.88;;
23370;SDS011;11858;51.056;3.712;2022-08-19T05:34:10;35.05;;;25.35;;
23370;SDS011;11858;51.056;3.712;2022-08-19T05:36:37;34.92;;;24.05;;
23370;SDS011;11858;51.056;3.712;2022-08-19T05:39:06;36.03;;;24.60;;
23370;SDS011;11858;51.056;3.712;2022-08-19T05:41:35;35.28;;;24.83;;
23370;SDS011;11858;51.056;3.712;2022-08-19T05:44:01;38.30;;;25.10;;
23370;SDS011;11858;51.056;3.712;2022-08-19T05:46:31;34.45;;;25.02;;
23370;SDS011;11858;51.056;3.712;2022-08-19T05:48:57;36.05;;;24.52;;
23370;SDS011;11858;51.056;3.712;2022-08-19T05:51:23;41.28;;;26.20;;
23370;SDS011;11858;51.056;3.712;2022-08-19T05:53:50;41.75;;;27.13;;
23370;SDS011;11858;51.056;3.712;2022-08-19T05:56:16;40.53;;;27.00;;
23370;SDS011;11858;51.056;3.712;2022-08-19T05:58:43;39.83;;;25.75;;
23370;SDS011;11858;51.056;3.712;2022-08-19T06:01:14;43.63;;;26.30;;
23370;SDS011;11858;51.056;3.712;2022-08-19T06:03:42;31.75;;;23.10;;
23370;SDS011;11858;51.056;3.712;2022-08-19T06:06:09;38.25;;;25.88;;
23370;SDS011;11858;51.056;3.712;2022-08-19T06:08:37;36.80;;;26.52;;
23370;SDS011;11858;51.056;3.712;2022-08-19T06:11:17;40.35;;;26.92;;
23370;SDS011;11858;51.056;3.712;2022-08-19T06:14:01;37.15;;;25.20;;
23370;SDS011;11858;51.056;3.712;2022-08-19T06:16:28;34.67;;;25.77;;
23370;SDS011;11858;51.056;3.712;2022-08-19T06:18:55;37.83;;;26.67;;
23370;SDS011;11858;51.056;3.712;2022-08-19T06:21:22;38.90;;;26.55;;
23370;SDS011;11858;51.056;3.712;2022-08-19T06:23:49;37.42;;;24.17;;
23370;SDS011;11858;51.056;3.712;2022-08-19T06:26:17;34.15;;;23.45;;
23370;SDS011;11858;51.056;3.712;2022-08-19T06:28:43;33.03;;;25.02;;
23370;SDS011;11858;51.056;3.712;2022-08-19T06:31:11;33.53;;;21.70;;
23370;SDS011;11858;51.056;3.712;2022-08-19T06:33:42;29.40;;;22.40;;
23370;SDS011;11858;51.056;3.712;2022-08-19T06:36:26;31.70;;;23.20;;
23370;SDS011;11858;51.056;3.712;2022-08-19T06:38:56;27.80;;;21.40;;
23370;SDS011;11858;51.056;3.712;2022-08-19T06:41:26;27.73;;;21.60;;
23370;SDS011;11858;51.056;3.712;2022-08-19T06:43:54;24.55;;;20.58;;
23370;SDS011;11858;51.056;3.712;2022-08-19T06:46:21;25.20;;;21.77;;
23370;SDS011;11858;51.056;3.712;2022-08-19T06:48:47;28.98;;;21.85;;
23370;SDS011;11858;51.056;3.712;2022-08-19T06:51:15;26.95;;;20.58;;
23370;SDS011;11858;51.056;3.712;2022-08-19T06:53:48;29.08;;;22.08;;
23370;SDS011;11858;51.056;3.712;2022-08-19T06:56:16;23.92;;;21.40;;
23370;SDS011;11858;51.056;3.712;2022-08-19T06:58:45;28.50;;;20.20;;
23370;SDS011;11858;51.056;3.712;2022-08-19T07:01:12;26.58;;;19.83;;
23370;SDS011;11858;51.056;3.712;2022-08-19T07:03:38;27.85;;;20.67;;
23370;SDS011;11858;51.056;3.712;2022-08-19T07:06:05;27.67;;;20.77;;
23370;SDS011;11858;51.056;3.712;2022-08-19T07:08:40;26.08;;;21.10;;
23370;SDS011;11858;51.056;3.712;2022-08-19T07:11:08;34.70;;;21.25;;
23370;SDS011;11858;51.056;3.712;2022-08-19T07:13:35;26.05;;;20.73;;
23370;SDS011;11858;51.056;3.712;2022-08-19T07:16:05;23.55;;;20.92;;
23370;SDS011;11858;51.056;3.712;2022-08-19T07:18:32;24.85;;;20.33;;
23370;SDS011;11858;51.056;3.712;2022-08-19T07:21:05;27.63;;;21.73;;
23370;SDS011;11858;51.056;3.712;2022-08-19T07:23:35;24.77;;;20.15;;
23370;SDS011;11858;51.056;3.712;2022-08-19T07:26:09;29.13;;;21.58;;
23370;SDS011;11858;51.056;3.712;2022-08-19T07:28:37;26.90;;;21.25;;
23370;SDS011;11858;51.056;3.712;2022-08-19T07:31:07;26.45;;;21.52;;
23370;SDS011;11858;51.056;3.712;2022-08-19T07:36:03;24.50;;;21.83;;
23370;SDS011;11858;51.056;3.712;2022-08-19T07:38:30;31.65;;;21.95;;
23370;SDS011;11858;51.056;3.712;2022-08-19T07:40:56;26.00;;;22.52;;
23370;SDS011;11858;51.056;3.712;2022-08-19T07:43:22;26.58;;;22.73;;
23370;SDS011;11858;51.056;3.712;2022-08-19T07:45:50;26.80;;;23.02;;
23370;SDS011;11858;51.056;3.712;2022-08-19T07:48:16;27.90;;;23.48;;
23370;SDS011;11858;51.056;3.712;2022-08-19T07:50:42;31.55;;;24.10;;
23370;SDS011;11858;51.056;3.712;2022-08-19T07:53:08;29.20;;;23.38;;
23370;SDS011;11858;51.056;3.712;2022-08-19T07:55:34;30.70;;;24.52;;
23370;SDS011;11858;51.056;3.712;2022-08-19T07:58:00;27.77;;;21.98;;
23370;SDS011;11858;51.056;3.712;2022-08-19T08:00:25;26.23;;;22.70;;
23370;SDS011;11858;51.056;3.712;2022-08-19T08:02:52;32.53;;;22.65;;
23370;SDS011;11858;51.056;3.712;2022-08-19T08:05:18;26.13;;;22.58;;
23370;SDS011;11858;51.056;3.712;2022-08-19T08:08:02;29.88;;;22.42;;
23370;SDS011;11858;51.056;3.712;2022-08-19T08:10:46;26.45;;;22.17;;
23370;SDS011;11858;51.056;3.712;2022-08-19T08:13:12;28.17;;;22.45;;
23370;SDS011;11858;51.056;3.712;2022-08-19T08:15:38;27.02;;;22.58;;
23370;SDS011;11858;51.056;3.712;2022-08-19T08:18:04;30.10;;;22.70;;
23370;SDS011;11858;51.056;3.712;2022-08-19T08:20:30;27.67;;;22.95;;
23370;SDS011;11858;51.056;3.712;2022-08-19T08:22:56;26.00;;;22.45;;
23370;SDS011;11858;51.056;3.712;2022-08-19T08:25:40;28.15;;;22.08;;
23370;SDS011;11858;51.056;3.712;2022-08-19T08:28:06;29.48;;;22.05;;
23370;SDS011;11858;51.056;3.712;2022-08-19T08:30:33;31.63;;;24.45;;
23370;SDS011;11858;51.056;3.712;2022-08-19T08:33:01;27.02;;;22.90;;
23370;SDS011;11858;51.056;3.712;2022-08-19T08:35:26;29.30;;;22.92;;
23370;SDS011;11858;51.056;3.712;2022-08-19T08:37:53;26.00;;;23.02;;
23370;SDS011;11858;51.056;3.712;2022-08-19T08:42:53;27.60;;;21.70;;
23370;SDS011;11858;51.056;3.712;2022-08-19T08:45:20;24.33;;;21.95;;
23370;SDS011;11858;51.056;3.712;2022-08-19T08:47:48;24.13;;;21.63;;
23370;SDS011;11858;51.056;3.712;2022-08-19T08:50:22;24.05;;;21.52;;
23370;SDS011;11858;51.056;3.712;2022-08-19T08:52:55;22.83;;;20.35;;
23370;SDS011;11858;51.056;3.712;2022-08-19T08:55:25;23.67;;;21.42;;
23370;SDS011;11858;51.056;3.712;2022-08-19T08:57:59;23.37;;;20.87;;
23370;SDS011;11858;51.056;3.712;2022-08-19T09:00:30;23.58;;;21.15;;
23370;SDS011;11858;51.056;3.712;2022-08-19T09:03:04;22.85;;;20.52;;
23370;SDS011;11858;51.056;3.712;2022-08-19T09:05:43;22.83;;;20.70;;
23370;SDS011;11858;51.056;3.712;2022-08-19T09:08:13;20.83;;;19.02;;
23370;SDS011;11858;51.056;3.712;2022-08-19T09:10:49;21.42;;;19.42;;
23370;SDS011;11858;51.056;3.712;2022-08-19T09:15:52;20.80;;;18.67;;
23370;SDS011;11858;51.056;3.712;2022-08-19T09:18:22;20.27;;;18.35;;
23370;SDS011;11858;51.056;3.712;2022-08-19T09:20:48;19.63;;;17.63;;
23370;SDS011;11858;51.056;3.712;2022-08-19T09:23:14;18.73;;;17.05;;
23370;SDS011;11858;51.056;3.712;2022-08-19T09:25:40;17.67;;;16.00;;
23370;SDS011;11858;51.056;3.712;2022-08-19T09:28:06;16.70;;;15.10;;
23370;SDS011;11858;51.056;3.712;2022-08-19T09:30:34;17.40;;;15.43;;
23370;SDS011;11858;51.056;3.712;2022-08-19T09:33:05;16.45;;;15.13;;
23370;SDS011;11858;51.056;3.712;2022-08-19T09:35:31;17.23;;;15.52;;
23370;SDS011;11858;51.056;3.712;2022-08-19T09:37:57;16.80;;;15.40;;
23370;SDS011;11858;51.056;3.712;2022-08-19T09:40:24;16.13;;;14.63;;
23370;SDS011;11858;51.056;3.712;2022-08-19T09:42:51;16.65;;;15.23;;
23370;SDS011;11858;51.056;3.712;2022-08-19T09:45:19;15.38;;;13.95;;
23370;SDS011;11858;51.056;3.712;2022-08-19T09:47:47;15.07;;;13.60;;
23370;SDS011;11858;51.056;3.712;2022-08-19T09:50:13;16.10;;;14.55;;
23370;SDS011;11858;51.056;3.712;2022-08-19T09:52:39;14.30;;;13.30;;
23370;SDS011;11858;51.056;3.712;2022-08-19T09:55:08;15.68;;;14.40;;
23370;SDS011;11858;51.056;3.712;2022-08-19T09:57:34;15.00;;;13.80;;
23370;SDS011;11858;51.056;3.712;2022-08-19T10:00:01;14.85;;;13.63;;
23370;SDS011;11858;51.056;3.712;2022-08-19T10:02:32;14.45;;;13.25;;
23370;SDS011;11858;51.056;3.712;2022-08-19T10:04:58;14.45;;;13.35;;
23370;SDS011;11858;51.056;3.712;2022-08-19T10:07:42;16.00;;;14.45;;
23370;SDS011;11858;51.056;3.712;2022-08-19T10:10:08;16.02;;;14.60;;
23370;SDS011;11858;51.056;3.712;2022-08-19T10:12:34;16.30;;;14.80;;
23370;SDS011;11858;51.056;3.712;2022-08-19T10:15:00;16.17;;;14.70;;
23370;SDS011;11858;51.056;3.712;2022-08-19T10:17:26;17.65;;;15.50;;
23370;SDS011;11858;51.056;3.712;2022-08-19T10:19:53;14.93;;;13.65;;
23370;SDS011;11858;51.056;3.712;2022-08-19T10:22:19;14.30;;;12.98;;
23370;SDS011;11858;51.056;3.712;2022-08-19T10:24:45;14.10;;;12.77;;
23370;SDS011;11858;51.056;3.712;2022-08-19T10:27:12;14.40;;;13.10;;
23370;SDS011;11858;51.056;3.712;2022-08-19T10:29:39;15.68;;;12.93;;
23370;SDS011;11858;51.056;3.712;2022-08-19T10:32:06;13.77;;;12.57;;
23370;SDS011;11858;51.056;3.712;2022-08-19T10:34:34;14.13;;;12.90;;
23370;SDS011;11858;51.056;3.712;2022-08-19T10:37:01;15.27;;;13.90;;
23370;SDS011;11858;51.056;3.712;2022-08-19T10:39:31;15.43;;;14.23;;
23370;SDS011;11858;51.056;3.712;2022-08-19T10:41:58;14.65;;;13.43;;
23370;SDS011;11858;51.056;3.712;2022-08-19T10:44:23;15.40;;;14.20;;
23370;SDS011;11858;51.056;3.712;2022-08-19T10:46:50;16.67;;;15.15;;
23370;SDS011;11858;51.056;3.712;2022-08-19T10:49:17;16.35;;;15.05;;
23370;SDS011;11858;51.056;3.712;2022-08-19T10:51:44;15.50;;;14.15;;
23370;SDS011;11858;51.056;3.712;2022-08-19T10:54:35;15.60;;;14.32;;
23370;SDS011;11858;51.056;3.712;2022-08-19T10:57:19;15.93;;;14.63;;
23370;SDS011;11858;51.056;3.712;2022-08-19T10:59:49;14.73;;;13.57;;
23370;SDS011;11858;51.056;3.712;2022-08-19T11:02:15;15.18;;;14.07;;
23370;SDS011;11858;51.056;3.712;2022-08-19T11:04:40;17.05;;;15.38;;
23370;SDS011;11858;51.056;3.712;2022-08-19T11:07:06;16.40;;;14.90;;
23370;SDS011;11858;51.056;3.712;2022-08-19T11:09:36;18.15;;;15.50;;
23370;SDS011;11858;51.056;3.712;2022-08-19T11:12:05;17.08;;;15.52;;
23370;SDS011;11858;51.056;3.712;2022-08-19T11:14:32;17.40;;;16.05;;
23370;SDS011;11858;51.056;3.712;2022-08-19T11:16:59;18.20;;;16.70;;
23370;SDS011;11858;51.056;3.712;2022-08-19T11:19:25;19.60;;;17.17;;
23370;SDS011;11858;51.056;3.712;2022-08-19T11:21:51;18.73;;;16.92;;
23370;SDS011;11858;51.056;3.712;2022-08-19T11:24:23;17.48;;;15.93;;
23370;SDS011;11858;51.056;3.712;2022-08-19T11:26:51;16.67;;;15.25;;
23370;SDS011;11858;51.056;3.712;2022-08-19T11:29:21;15.55;;;14.20;;
23370;SDS011;11858;51.056;3.712;2022-08-19T11:31:50;14.77;;;13.57;;
23370;SDS011;11858;51.056;3.712;2022-08-19T11:34:18;14.15;;;13.05;;
23370;SDS011;11858;51.056;3.712;2022-08-19T11:36:46;15.00;;;13.70;;
23370;SDS011;11858;51.056;3.712;2022-08-19T11:39:21;14.00;;;12.88;;
23370;SDS011;11858;51.056;3.712;2022-08-19T11:41:47;13.75;;;12.63;;
23370;SDS011;11858;51.056;3.712;2022-08-19T11:44:14;14.50;;;13.50;;
23370;SDS011;11858;51.056;3.712;2022-08-19T11:46:40;13.40;;;12.50;;
23370;SDS011;11858;51.056;3.712;2022-08-19T11:49:10;12.85;;;11.85;;
23370;SDS011;11858;51.056;3.712;2022-08-19T11:51:36;13.10;;;12.10;;
23370;SDS011;11858;51.056;3.712;2022-08-19T11:54:04;13.32;;;12.15;;
23370;SDS011;11858;51.056;3.712;2022-08-19T11:56:31;12.77;;;11.88;;
23370;SDS011;11858;51.056;3.712;2022-08-19T11:58:57;11.93;;;11.13;;
23370;SDS011;11858;51.056;3.712;2022-08-19T12:01:24;13.20;;;11.73;;
23370;SDS011;11858;51.056;3.712;2022-08-19T12:03:52;12.73;;;11.90;;
23370;SDS011;11858;51.056;3.712;2022-08-19T12:06:20;11.85;;;11.00;;
23370;SDS011;11858;51.056;3.712;2022-08-19T12:08:53;12.85;;;11.85;;
23370;SDS011;11858;51.056;3.712;2022-08-19T12:11:33;12.90;;;11.90;;
23370;SDS011;11858;51.056;3.712;2022-08-19T12:14:01;14.32;;;13.20;;
23370;SDS011;11858;51.056;3.712;2022-08-19T12:16:28;13.48;;;12.43;;
23370;SDS011;11858;51.056;3.712;2022-08-19T12:18:56;14.32;;;13.02;;
23370;SDS011;11858;51.056;3.712;2022-08-19T12:21:23;13.75;;;12.55;;
23370;SDS011;11858;51.056;3.712;2022-08-19T12:23:53;14.00;;;13.00;;
23370;SDS011;11858;51.056;3.712;2022-08-19T12:26:20;14.43;;;13.18;;
23370;SDS011;11858;51.056;3.712;2022-08-19T12:28:46;14.10;;;13.02;;
23370;SDS011;11858;51.056;3.712;2022-08-19T12:31:13;14.90;;;13.75;;
23370;SDS011;11858;51.056;3.712;2022-08-19T12:33:40;14.35;;;13.43;;
23370;SDS011;11858;51.056;3.712;2022-08-19T12:36:07;13.93;;;12.90;;
23370;SDS011;11858;51.056;3.712;2022-08-19T12:38:35;14.13;;;13.13;;
23370;SDS011;11858;51.056;3.712;2022-08-19T12:41:02;13.30;;;12.40;;
23370;SDS011;11858;51.056;3.712;2022-08-19T12:43:32;14.80;;;13.45;;
23370;SDS011;11858;51.056;3.712;2022-08-19T12:45:59;13.15;;;12.10;;
23370;SDS011;11858;51.056;3.712;2022-08-19T12:48:25;13.00;;;11.88;;
23370;SDS011;11858;51.056;3.712;2022-08-19T12:50:51;12.20;;;11.20;;
23370;SDS011;11858;51.056;3.712;2022-08-19T12:53:17;13.43;;;12.32;;
23370;SDS011;11858;51.056;3.712;2022-08-19T12:55:43;12.70;;;11.90;;
23370;SDS011;11858;51.056;3.712;2022-08-19T12:58:09;12.57;;;11.48;;
23370;SDS011;11858;51.056;3.712;2022-08-19T13:00:35;12.25;;;11.25;;
23370;SDS011;11858;51.056;3.712;2022-08-19T13:03:01;11.98;;;11.07;;
23370;SDS011;11858;51.056;3.712;2022-08-19T13:05:28;12.60;;;11.55;;
23370;SDS011;11858;51.056;3.712;2022-08-19T13:07:57;12.50;;;11.38;;
23370;SDS011;11858;51.056;3.712;2022-08-19T13:10:27;12.40;;;11.50;;
23370;SDS011;11858;51.056;3.712;2022-08-19T13:13:01;12.65;;;11.50;;
23370;SDS011;11858;51.056;3.712;2022-08-19T13:15:36;12.15;;;11.25;;
23370;SDS011;11858;51.056;3.712;2022-08-19T13:18:05;12.38;;;11.38;;
23370;SDS011;11858;51.056;3.712;2022-08-19T13:20:31;28.38;;;25.52;;
23370;SDS011;11858;51.056;3.712;2022-08-19T13:22:57;39.72;;;33.58;;
23370;SDS011;11858;51.056;3.712;2022-08-19T13:25:22;46.88;;;40.58;;
23370;SDS011;11858;51.056;3.712;2022-08-19T13:27:49;44.60;;;39.80;;
23370;SDS011;11858;51.056;3.712;2022-08-19T13:30:16;51.97;;;41.38;;
23370;SDS011;11858;51.056;3.712;2022-08-19T13:33:01;45.78;;;36.28;;
23370;SDS011;11858;51.056;3.712;2022-08-19T13:35:58;41.72;;;35.72;;
23370;SDS011;11858;51.056;3.712;2022-08-19T13:38:23;42.58;;;36.67;;
23370;SDS011;11858;51.056;3.712;2022-08-19T13:40:50;39.03;;;35.08;;
23370;SDS011;11858;51.056;3.712;2022-08-19T13:43:17;39.13;;;35.28;;
23370;SDS011;11858;51.056;3.712;2022-08-19T13:45:44;39.55;;;35.55;;
23370;SDS011;11858;51.056;3.712;2022-08-19T13:48:10;34.40;;;30.75;;
23370;SDS011;11858;51.056;3.712;2022-08-19T13:50:40;34.72;;;31.30;;
23370;SDS011;11858;51.056;3.712;2022-08-19T13:53:09;35.10;;;31.60;;
23370;SDS011;11858;51.056;3.712;2022-08-19T13:55:39;35.30;;;31.77;;
23370;SDS011;11858;51.056;3.712;2022-08-19T13:58:07;43.17;;;39.47;;
23370;SDS011;11858;51.056;3.712;2022-08-19T14:00:35;45.08;;;40.80;;
23370;SDS011;11858;51.056;3.712;2022-08-19T14:03:03;44.40;;;39.77;;
23370;SDS011;11858;51.056;3.712;2022-08-19T14:05:29;45.42;;;41.30;;
23370;SDS011;11858;51.056;3.712;2022-08-19T14:07:55;49.15;;;44.97;;
23370;SDS011;11858;51.056;3.712;2022-08-19T14:10:22;38.35;;;35.55;;
23370;SDS011;11858;51.056;3.712;2022-08-19T14:12:54;33.78;;;31.20;;
23370;SDS011;11858;51.056;3.712;2022-08-19T14:15:21;31.65;;;29.05;;
23370;SDS011;11858;51.056;3.712;2022-08-19T14:17:48;28.38;;;26.33;;
23370;SDS011;11858;51.056;3.712;2022-08-19T14:20:14;26.02;;;23.77;;
23370;SDS011;11858;51.056;3.712;2022-08-19T14:22:40;23.60;;;21.73;;
23370;SDS011;11858;51.056;3.712;2022-08-19T14:25:07;21.67;;;20.20;;
23370;SDS011;11858;51.056;3.712;2022-08-19T14:27:35;20.55;;;18.98;;
23370;SDS011;11858;51.056;3.712;2022-08-19T14:30:03;19.15;;;17.23;;
23370;SDS011;11858;51.056;3.712;2022-08-19T14:32:29;16.73;;;15.32;;
23370;SDS011;11858;51.056;3.712;2022-08-19T14:34:55;14.98;;;13.68;;
23370;SDS011;11858;51.056;3.712;2022-08-19T14:37:21;15.63;;;13.75;;
23370;SDS011;11858;51.056;3.712;2022-08-19T14:39:47;15.73;;;14.20;;
23370;SDS011;11858;51.056;3.712;2022-08-19T14:42:12;15.43;;;13.98;;